sensor_id;sensor_type;location;lat;lon;timestamp;pressure;altitude;pressure_sealevel;temperature;humidity
64889;BME280;51386;53.082;8.816;2022-12-29T00:00:06;99979.84;;;14.27;62.58
64889;BME280;51386;53.082;8.816;2022-12-29T00:02:33;99973.56;;;14.22;62.95
64889;BME280;51386;53.082;8.816;2022-12-29T00:05:01;99973.78;;;14.20;62.83
64889;BME280;51386;53.082;8.816;2022-12-29T00:07:28;99974.44;;;14.16;63.08
64889;BME280;51386;53.082;8.816;2022-12-29T00:09:55;99954.44;;;14.20;63.08
64889;BME280;51386;53.082;8.816;2022-12-29T00:12:22;99962.63;;;14.18;62.93
64889;BME280;51386;53.082;8.816;2022-12-29T00:14:49;99957.09;;;14.20;62.93
64889;BME280;51386;53.082;8.816;2022-12-29T00:17:34;99962.31;;;14.26;62.75
64889;BME280;51386;53.082;8.816;2022-12-29T00:20:03;99955.19;;;14.27;62.77
64889;BME280;51386;53.082;8.816;2022-12-29T00:22:49;99949.91;;;14.27;63.15
64889;BME280;51386;53.082;8.816;2022-12-29T00:25:36;99945.28;;;14.22;63.10
64889;BME280;51386;53.082;8.816;2022-12-29T00:28:22;99943.13;;;14.13;63.68
64889;BME280;51386;53.082;8.816;2022-12-29T00:31:11;99942.38;;;14.31;63.23
64889;BME280;51386;53.082;8.816;2022-12-29T00:33:58;99941.78;;;14.29;63.45
64889;BME280;51386;53.082;8.816;2022-12-29T00:36:45;99931.88;;;14.42;63.10
64889;BME280;51386;53.082;8.816;2022-12-29T00:39:16;99925.84;;;14.53;62.78
64889;BME280;51386;53.082;8.816;2022-12-29T00:42:04;99917.59;;;14.43;62.89
64889;BME280;51386;53.082;8.816;2022-12-29T00:45:07;99926.66;;;14.36;63.60
64889;BME280;51386;53.082;8.816;2022-12-29T00:47:34;99923.63;;;14.50;62.99
64889;BME280;51386;53.082;8.816;2022-12-29T00:50:01;99930.56;;;14.51;63.14
64889;BME280;51386;53.082;8.816;2022-12-29T00:52:30;99913.44;;;14.54;63.20
64889;BME280;51386;53.082;8.816;2022-12-29T00:54:57;99926.00;;;14.58;63.21
64889;BME280;51386;53.082;8.816;2022-12-29T00:57:24;99926.44;;;14.55;63.56
64889;BME280;51386;53.082;8.816;2022-12-29T00:59:51;99910.41;;;14.50;64.10
64889;BME280;51386;53.082;8.816;2022-12-29T01:02:18;99907.38;;;14.47;64.37
64889;BME280;51386;53.082;8.816;2022-12-29T01:04:45;99907.47;;;14.58;63.70
64889;BME280;51386;53.082;8.816;2022-12-29T01:07:12;99906.28;;;14.54;63.78
64889;BME280;51386;53.082;8.816;2022-12-29T01:09:41;99907.03;;;14.61;63.49
64889;BME280;51386;53.082;8.816;2022-12-29T01:12:26;99906.28;;;14.72;63.30
64889;BME280;51386;53.082;8.816;2022-12-29T01:15:13;99894.06;;;14.71;63.00
64889;BME280;51386;53.082;8.816;2022-12-29T01:17:40;99893.78;;;14.61;63.18
64889;BME280;51386;53.082;8.816;2022-12-29T01:20:09;99896.84;;;14.76;62.77
64889;BME280;51386;53.082;8.816;2022-12-29T01:22:37;99888.31;;;14.74;62.86
64889;BME280;51386;53.082;8.816;2022-12-29T01:25:07;99881.34;;;14.80;62.43
64889;BME280;51386;53.082;8.816;2022-12-29T01:27:34;99896.69;;;14.71;62.75
64889;BME280;51386;53.082;8.816;2022-12-29T01:30:01;99887.88;;;14.77;62.50
64889;BME280;51386;53.082;8.816;2022-12-29T01:32:28;99884.56;;;14.82;62.16
64889;BME280;51386;53.082;8.816;2022-12-29T01:34:55;99873.44;;;14.91;62.30
64889;BME280;51386;53.082;8.816;2022-12-29T01:37:22;99881.25;;;14.86;62.15
64889;BME280;51386;53.082;8.816;2022-12-29T01:39:49;99871.09;;;14.83;62.58
64889;BME280;51386;53.082;8.816;2022-12-29T01:42:23;99861.88;;;14.86;62.41
64889;BME280;51386;53.082;8.816;2022-12-29T01:44:54;99870.88;;;14.85;62.59
64889;BME280;51386;53.082;8.816;2022-12-29T01:47:36;99865.00;;;14.83;62.35
64889;BME280;51386;53.082;8.816;2022-12-29T01:50:10;99857.97;;;14.88;62.42
64889;BME280;51386;53.082;8.816;2022-12-29T01:52:44;99860.81;;;14.75;62.47
64889;BME280;51386;53.082;8.816;2022-12-29T01:55:16;99863.75;;;14.85;62.49
64889;BME280;51386;53.082;8.816;2022-12-29T01:57:49;99842.75;;;14.84;62.29
64889;BME280;51386;53.082;8.816;2022-12-29T02:00:17;99856.72;;;14.91;62.12
64889;BME280;51386;53.082;8.816;2022-12-29T02:02:48;99841.19;;;14.95;62.02
64889;BME280;51386;53.082;8.816;2022-12-29T02:05:25;99829.91;;;14.99;61.91
64889;BME280;51386;53.082;8.816;2022-12-29T02:07:54;99839.41;;;15.07;61.67
64889;BME280;51386;53.082;8.816;2022-12-29T02:10:24;99845.28;;;15.09;61.50
64889;BME280;51386;53.082;8.816;2022-12-29T02:12:54;99829.25;;;15.04;61.64
64889;BME280;51386;53.082;8.816;2022-12-29T02:15:35;99838.41;;;14.89;62.05
64889;BME280;51386;53.082;8.816;2022-12-29T02:18:22;99838.69;;;15.00;61.63
64889;BME280;51386;53.082;8.816;2022-12-29T02:21:42;99829.81;;;15.06;61.38
64889;BME280;51386;53.082;8.816;2022-12-29T02:25:00;99823.50;;;15.07;61.40
64889;BME280;51386;53.082;8.816;2022-12-29T02:27:52;99830.06;;;15.04;61.41
64889;BME280;51386;53.082;8.816;2022-12-29T02:30:40;99815.41;;;15.02;61.46
64889;BME280;51386;53.082;8.816;2022-12-29T02:33:22;99819.75;;;14.96;61.67
64889;BME280;51386;53.082;8.816;2022-12-29T02:36:01;99825.09;;;15.08;61.45
64889;BME280;51386;53.082;8.816;2022-12-29T02:38:52;99812.41;;;15.10;61.20
64889;BME280;51386;53.082;8.816;2022-12-29T02:41:30;99815.56;;;15.18;60.99
64889;BME280;51386;53.082;8.816;2022-12-29T02:44:10;99804.94;;;15.07;61.27
64889;BME280;51386;53.082;8.816;2022-12-29T02:46:47;99795.81;;;15.03;61.43
64889;BME280;51386;53.082;8.816;2022-12-29T02:49:22;99801.81;;;15.10;61.20
64889;BME280;51386;53.082;8.816;2022-12-29T02:52:01;99806.69;;;15.13;61.33
64889;BME280;51386;53.082;8.816;2022-12-29T02:54:30;99805.31;;;15.22;61.19
64889;BME280;51386;53.082;8.816;2022-12-29T02:57:28;99798.16;;;15.22;60.86
64889;BME280;51386;53.082;8.816;2022-12-29T03:00:01;99797.94;;;15.24;60.89
64889;BME280;51386;53.082;8.816;2022-12-29T03:05:53;99789.97;;;15.24;60.50
64889;BME280;51386;53.082;8.816;2022-12-29T03:08:33;99786.16;;;15.20;60.79
64889;BME280;51386;53.082;8.816;2022-12-29T03:11:04;99784.56;;;15.19;61.38
64889;BME280;51386;53.082;8.816;2022-12-29T03:13:43;99771.53;;;15.17;61.07
64889;BME280;51386;53.082;8.816;2022-12-29T03:16:43;99773.97;;;15.19;61.23
64889;BME280;51386;53.082;8.816;2022-12-29T03:19:18;99764.53;;;15.23;60.90
64889;BME280;51386;53.082;8.816;2022-12-29T03:21:53;99758.66;;;15.32;60.77
64889;BME280;51386;53.082;8.816;2022-12-29T03:24:46;99767.28;;;15.28;60.58
64889;BME280;51386;53.082;8.816;2022-12-29T03:27:21;99768.09;;;15.28;60.56
64889;BME280;51386;53.082;8.816;2022-12-29T03:29:55;99751.25;;;15.23;60.92
64889;BME280;51386;53.082;8.816;2022-12-29T03:32:28;99757.59;;;15.33;60.75
64889;BME280;51386;53.082;8.816;2022-12-29T03:35:00;99752.41;;;15.38;60.53
64889;BME280;51386;53.082;8.816;2022-12-29T03:37:35;99755.75;;;15.34;60.78
64889;BME280;51386;53.082;8.816;2022-12-29T03:40:05;99744.81;;;15.19;61.54
64889;BME280;51386;53.082;8.816;2022-12-29T03:42:35;99738.13;;;15.16;61.47
64889;BME280;51386;53.082;8.816;2022-12-29T03:45:06;99738.47;;;15.20;61.71
64889;BME280;51386;53.082;8.816;2022-12-29T03:47:33;99738.72;;;15.30;61.34
64889;BME280;51386;53.082;8.816;2022-12-29T03:50:02;99730.19;;;15.28;61.83
64889;BME280;51386;53.082;8.816;2022-12-29T03:52:29;99747.13;;;15.38;61.56
64889;BME280;51386;53.082;8.816;2022-12-29T03:54:55;99747.59;;;15.35;62.30
64889;BME280;51386;53.082;8.816;2022-12-29T03:57:23;99743.56;;;15.21;63.06
64889;BME280;51386;53.082;8.816;2022-12-29T03:59:49;99735.59;;;15.21;62.73
64889;BME280;51386;53.082;8.816;2022-12-29T04:02:16;99729.47;;;15.21;63.14
64889;BME280;51386;53.082;8.816;2022-12-29T04:04:44;99721.84;;;15.13;63.72
64889;BME280;51386;53.082;8.816;2022-12-29T04:07:12;99723.69;;;15.01;64.53
64889;BME280;51386;53.082;8.816;2022-12-29T04:09:39;99726.53;;;14.87;65.42
64889;BME280;51386;53.082;8.816;2022-12-29T04:12:06;99727.81;;;14.85;65.61
64889;BME280;51386;53.082;8.816;2022-12-29T04:14:33;99733.41;;;14.77;65.94
64889;BME280;51386;53.082;8.816;2022-12-29T04:17:00;99731.59;;;14.77;66.09
64889;BME280;51386;53.082;8.816;2022-12-29T04:19:27;99712.91;;;14.72;66.64
64889;BME280;51386;53.082;8.816;2022-12-29T04:21:54;99714.06;;;14.76;66.37
64889;BME280;51386;53.082;8.816;2022-12-29T04:24:22;99706.13;;;14.76;66.14
64889;BME280;51386;53.082;8.816;2022-12-29T04:26:49;99713.47;;;14.74;66.43
64889;BME280;51386;53.082;8.816;2022-12-29T04:29:16;99704.53;;;14.75;66.33
64889;BME280;51386;53.082;8.816;2022-12-29T04:31:43;99713.38;;;14.81;66.24
64889;BME280;51386;53.082;8.816;2022-12-29T04:34:10;99708.44;;;14.84;66.06
64889;BME280;51386;53.082;8.816;2022-12-29T04:36:38;99714.91;;;14.88;66.08
64889;BME280;51386;53.082;8.816;2022-12-29T04:39:07;99709.84;;;14.87;65.54
64889;BME280;51386;53.082;8.816;2022-12-29T04:41:35;99710.84;;;14.86;65.73
64889;BME280;51386;53.082;8.816;2022-12-29T04:44:02;99707.47;;;14.67;65.97
64889;BME280;51386;53.082;8.816;2022-12-29T04:46:30;99720.84;;;14.72;65.79
64889;BME280;51386;53.082;8.816;2022-12-29T04:48:56;99725.13;;;14.73;65.89
64889;BME280;51386;53.082;8.816;2022-12-29T04:51:23;99723.41;;;14.90;65.51
64889;BME280;51386;53.082;8.816;2022-12-29T04:53:51;99728.16;;;15.00;64.70
64889;BME280;51386;53.082;8.816;2022-12-29T04:56:17;99716.56;;;15.13;64.23
64889;BME280;51386;53.082;8.816;2022-12-29T04:58:46;99715.09;;;15.28;63.46
64889;BME280;51386;53.082;8.816;2022-12-29T05:01:13;99722.34;;;15.33;63.07
64889;BME280;51386;53.082;8.816;2022-12-29T05:03:40;99716.69;;;15.29;62.86
64889;BME280;51386;53.082;8.816;2022-12-29T05:06:07;99718.19;;;15.37;62.77
64889;BME280;51386;53.082;8.816;2022-12-29T05:08:34;99724.06;;;15.39;62.62
64889;BME280;51386;53.082;8.816;2022-12-29T05:11:01;99720.97;;;15.42;62.61
64889;BME280;51386;53.082;8.816;2022-12-29T05:13:28;99721.88;;;15.36;62.95
64889;BME280;51386;53.082;8.816;2022-12-29T05:15:56;99723.59;;;15.30;63.67
64889;BME280;51386;53.082;8.816;2022-12-29T05:18:23;99704.81;;;15.20;63.92
64889;BME280;51386;53.082;8.816;2022-12-29T05:20:50;99714.25;;;15.16;64.05
64889;BME280;51386;53.082;8.816;2022-12-29T05:23:17;99725.19;;;15.20;63.59
64889;BME280;51386;53.082;8.816;2022-12-29T05:25:44;99727.16;;;15.13;63.92
64889;BME280;51386;53.082;8.816;2022-12-29T05:28:14;99714.25;;;15.05;64.32
64889;BME280;51386;53.082;8.816;2022-12-29T05:30:41;99714.72;;;15.02;64.34
64889;BME280;51386;53.082;8.816;2022-12-29T05:33:09;99726.19;;;14.96;64.10
64889;BME280;51386;53.082;8.816;2022-12-29T05:35:38;99728.28;;;14.93;64.30
64889;BME280;51386;53.082;8.816;2022-12-29T05:38:05;99746.25;;;14.91;64.33
64889;BME280;51386;53.082;8.816;2022-12-29T05:40:32;99733.56;;;14.93;63.78
64889;BME280;51386;53.082;8.816;2022-12-29T05:42:59;99741.31;;;14.95;64.36
64889;BME280;51386;53.082;8.816;2022-12-29T05:45:26;99739.25;;;14.97;64.22
64889;BME280;51386;53.082;8.816;2022-12-29T05:47:52;99741.88;;;14.97;64.77
64889;BME280;51386;53.082;8.816;2022-12-29T05:50:21;99740.50;;;14.95;64.69
64889;BME280;51386;53.082;8.816;2022-12-29T05:52:48;99728.97;;;15.01;64.61
64889;BME280;51386;53.082;8.816;2022-12-29T05:55:15;99723.81;;;15.06;64.05
64889;BME280;51386;53.082;8.816;2022-12-29T05:57:42;99724.25;;;15.03;64.36
64889;BME280;51386;53.082;8.816;2022-12-29T06:00:10;99728.53;;;15.04;64.65
64889;BME280;51386;53.082;8.816;2022-12-29T06:02:38;99720.59;;;15.04;64.68
64889;BME280;51386;53.082;8.816;2022-12-29T06:05:06;99726.44;;;15.06;64.55
64889;BME280;51386;53.082;8.816;2022-12-29T06:07:34;99719.56;;;15.05;64.50
64889;BME280;51386;53.082;8.816;2022-12-29T06:10:01;99708.16;;;15.04;64.72
64889;BME280;51386;53.082;8.816;2022-12-29T06:12:29;99716.56;;;15.13;64.34
64889;BME280;51386;53.082;8.816;2022-12-29T06:14:56;99709.19;;;15.15;63.82
64889;BME280;51386;53.082;8.816;2022-12-29T06:17:23;99701.34;;;15.20;64.07
64889;BME280;51386;53.082;8.816;2022-12-29T06:19:50;99704.69;;;15.27;63.95
64889;BME280;51386;53.082;8.816;2022-12-29T06:22:17;99692.47;;;15.37;63.73
64889;BME280;51386;53.082;8.816;2022-12-29T06:24:45;99703.81;;;15.44;63.66
64889;BME280;51386;53.082;8.816;2022-12-29T06:27:12;99699.66;;;15.48;63.22
64889;BME280;51386;53.082;8.816;2022-12-29T06:29:40;99695.47;;;15.52;63.09
64889;BME280;51386;53.082;8.816;2022-12-29T06:32:07;99699.31;;;15.45;63.05
64889;BME280;51386;53.082;8.816;2022-12-29T06:34:34;99693.28;;;15.38;63.33
64889;BME280;51386;53.082;8.816;2022-12-29T06:37:01;99703.66;;;15.28;63.25
64889;BME280;51386;53.082;8.816;2022-12-29T06:39:29;99706.88;;;15.30;63.54
64889;BME280;51386;53.082;8.816;2022-12-29T06:41:57;99709.66;;;15.35;63.27
64889;BME280;51386;53.082;8.816;2022-12-29T06:44:24;99713.00;;;15.30;63.27
64889;BME280;51386;53.082;8.816;2022-12-29T06:46:51;99712.88;;;15.14;63.72
64889;BME280;51386;53.082;8.816;2022-12-29T06:49:18;99725.19;;;15.20;63.70
64889;BME280;51386;53.082;8.816;2022-12-29T06:51:45;99733.84;;;15.27;63.46
64889;BME280;51386;53.082;8.816;2022-12-29T06:54:12;99748.84;;;15.33;63.36
64889;BME280;51386;53.082;8.816;2022-12-29T06:56:39;99761.63;;;15.36;63.31
64889;BME280;51386;53.082;8.816;2022-12-29T06:59:09;99771.22;;;15.37;63.24
64889;BME280;51386;53.082;8.816;2022-12-29T07:01:36;99755.88;;;15.39;63.30
64889;BME280;51386;53.082;8.816;2022-12-29T07:04:03;99759.91;;;15.30;64.02
64889;BME280;51386;53.082;8.816;2022-12-29T07:06:30;99745.84;;;15.18;64.38
64889;BME280;51386;53.082;8.816;2022-12-29T07:08:58;99749.63;;;15.10;64.43
64889;BME280;51386;53.082;8.816;2022-12-29T07:11:25;99744.13;;;15.12;64.30
64889;BME280;51386;53.082;8.816;2022-12-29T07:13:52;99740.28;;;15.08;64.60
64889;BME280;51386;53.082;8.816;2022-12-29T07:16:20;99742.09;;;14.96;64.70
64889;BME280;51386;53.082;8.816;2022-12-29T07:18:47;99744.03;;;14.88;65.09
64889;BME280;51386;53.082;8.816;2022-12-29T07:21:14;99749.88;;;14.79;64.85
64889;BME280;51386;53.082;8.816;2022-12-29T07:23:41;99749.19;;;14.72;65.07
64889;BME280;51386;53.082;8.816;2022-12-29T07:26:13;99745.28;;;14.74;64.63
64889;BME280;51386;53.082;8.816;2022-12-29T07:28:40;99754.47;;;14.72;64.36
64889;BME280;51386;53.082;8.816;2022-12-29T07:31:15;99762.91;;;14.69;63.91
64889;BME280;51386;53.082;8.816;2022-12-29T07:33:45;99773.25;;;14.70;63.85
64889;BME280;51386;53.082;8.816;2022-12-29T07:36:13;99777.97;;;14.68;63.66
64889;BME280;51386;53.082;8.816;2022-12-29T07:38:41;99777.84;;;14.63;63.89
64889;BME280;51386;53.082;8.816;2022-12-29T07:41:08;99774.59;;;14.61;63.81
64889;BME280;51386;53.082;8.816;2022-12-29T07:43:35;99782.47;;;14.68;63.79
64889;BME280;51386;53.082;8.816;2022-12-29T07:46:04;99782.81;;;14.71;63.33
64889;BME280;51386;53.082;8.816;2022-12-29T07:48:31;99798.88;;;14.58;63.34
64889;BME280;51386;53.082;8.816;2022-12-29T07:51:01;99783.81;;;14.59;63.30
64889;BME280;51386;53.082;8.816;2022-12-29T07:53:28;99795.38;;;14.46;63.80
64889;BME280;51386;53.082;8.816;2022-12-29T07:55:56;99796.66;;;14.55;63.54
64889;BME280;51386;53.082;8.816;2022-12-29T07:58:23;99802.25;;;14.65;63.11
64889;BME280;51386;53.082;8.816;2022-12-29T08:00:53;99799.31;;;14.73;62.91
64889;BME280;51386;53.082;8.816;2022-12-29T08:03:20;99799.31;;;14.73;62.50
64889;BME280;51386;53.082;8.816;2022-12-29T08:05:48;99799.06;;;14.75;62.25
64889;BME280;51386;53.082;8.816;2022-12-29T08:08:16;99814.28;;;14.79;62.20
64889;BME280;51386;53.082;8.816;2022-12-29T08:10:43;99806.91;;;14.81;61.72
64889;BME280;51386;53.082;8.816;2022-12-29T08:13:10;99819.59;;;14.79;61.21
64889;BME280;51386;53.082;8.816;2022-12-29T08:15:39;99813.03;;;14.82;60.88
64889;BME280;51386;53.082;8.816;2022-12-29T08:18:06;99824.59;;;14.87;61.18
64889;BME280;51386;53.082;8.816;2022-12-29T08:20:33;99815.59;;;14.88;60.36
64889;BME280;51386;53.082;8.816;2022-12-29T08:22:59;99818.56;;;14.80;60.28
64889;BME280;51386;53.082;8.816;2022-12-29T08:25:28;99819.00;;;14.77;60.04
64889;BME280;51386;53.082;8.816;2022-12-29T08:27:55;99834.47;;;14.80;59.87
64889;BME280;51386;53.082;8.816;2022-12-29T08:30:21;99839.75;;;14.80;59.50
64889;BME280;51386;53.082;8.816;2022-12-29T08:32:49;99837.47;;;14.84;59.73
64889;BME280;51386;53.082;8.816;2022-12-29T08:35:16;99840.47;;;14.87;59.13
64889;BME280;51386;53.082;8.816;2022-12-29T08:37:42;99848.97;;;14.78;59.24
64889;BME280;51386;53.082;8.816;2022-12-29T08:40:10;99851.38;;;14.79;59.48
64889;BME280;51386;53.082;8.816;2022-12-29T08:42:39;99849.69;;;14.85;59.04
64889;BME280;51386;53.082;8.816;2022-12-29T08:45:07;99846.34;;;14.89;59.03
64889;BME280;51386;53.082;8.816;2022-12-29T08:47:35;99863.78;;;14.97;58.36
64889;BME280;51386;53.082;8.816;2022-12-29T08:50:03;99858.25;;;14.99;58.27
64889;BME280;51386;53.082;8.816;2022-12-29T08:52:30;99864.47;;;14.93;58.42
64889;BME280;51386;53.082;8.816;2022-12-29T08:54:57;99867.97;;;15.05;58.34
64889;BME280;51386;53.082;8.816;2022-12-29T08:57:24;99857.53;;;15.21;58.20
64889;BME280;51386;53.082;8.816;2022-12-29T08:59:52;99872.44;;;15.34;57.58
64889;BME280;51386;53.082;8.816;2022-12-29T09:02:19;99876.13;;;15.33;56.92
64889;BME280;51386;53.082;8.816;2022-12-29T09:04:51;99866.84;;;15.24;56.59
64889;BME280;51386;53.082;8.816;2022-12-29T09:07:18;99871.84;;;15.32;57.11
64889;BME280;51386;53.082;8.816;2022-12-29T09:09:45;99861.47;;;15.30;56.68
64889;BME280;51386;53.082;8.816;2022-12-29T09:12:12;99863.91;;;15.32;56.78
64889;BME280;51386;53.082;8.816;2022-12-29T09:14:39;99859.31;;;15.39;56.45
64889;BME280;51386;53.082;8.816;2022-12-29T09:17:07;99870.19;;;15.49;56.63
64889;BME280;51386;53.082;8.816;2022-12-29T09:19:53;99880.38;;;15.52;55.89
64889;BME280;51386;53.082;8.816;2022-12-29T09:22:20;99885.19;;;15.55;56.10
64889;BME280;51386;53.082;8.816;2022-12-29T09:24:47;99897.31;;;15.51;55.93
64889;BME280;51386;53.082;8.816;2022-12-29T09:27:14;99887.53;;;15.33;55.33
64889;BME280;51386;53.082;8.816;2022-12-29T09:29:41;99879.81;;;15.32;55.36
64889;BME280;51386;53.082;8.816;2022-12-29T09:32:09;99871.88;;;15.43;55.53
64889;BME280;51386;53.082;8.816;2022-12-29T09:34:42;99868.31;;;15.38;54.98
64889;BME280;51386;53.082;8.816;2022-12-29T09:37:09;99886.97;;;15.43;54.87
64889;BME280;51386;53.082;8.816;2022-12-29T09:39:36;99874.00;;;15.53;54.02
64889;BME280;51386;53.082;8.816;2022-12-29T09:42:12;99879.31;;;15.65;54.69
64889;BME280;51386;53.082;8.816;2022-12-29T09:44:51;99875.53;;;15.72;53.94
64889;BME280;51386;53.082;8.816;2022-12-29T09:47:25;99884.88;;;15.63;53.74
64889;BME280;51386;53.082;8.816;2022-12-29T09:49:56;99877.84;;;15.69;53.96
64889;BME280;51386;53.082;8.816;2022-12-29T09:52:30;99887.19;;;15.71;53.49
64889;BME280;51386;53.082;8.816;2022-12-29T09:55:03;99888.69;;;15.67;53.74
64889;BME280;51386;53.082;8.816;2022-12-29T09:57:45;99880.00;;;15.60;53.63
64889;BME280;51386;53.082;8.816;2022-12-29T10:00:17;99894.09;;;15.61;53.58
64889;BME280;51386;53.082;8.816;2022-12-29T10:02:51;99902.19;;;15.66;53.63
64889;BME280;51386;53.082;8.816;2022-12-29T10:05:33;99886.38;;;15.71;54.03
64889;BME280;51386;53.082;8.816;2022-12-29T10:08:30;99891.13;;;15.80;54.10
64889;BME280;51386;53.082;8.816;2022-12-29T10:11:09;99873.00;;;15.89;53.29
64889;BME280;51386;53.082;8.816;2022-12-29T10:14:02;99871.72;;;15.56;52.98
64889;BME280;51386;53.082;8.816;2022-12-29T10:16:51;99872.19;;;15.65;53.50
64889;BME280;51386;53.082;8.816;2022-12-29T10:19:46;99879.13;;;15.66;53.15
64889;BME280;51386;53.082;8.816;2022-12-29T10:22:33;99875.09;;;15.75;53.23
64889;BME280;51386;53.082;8.816;2022-12-29T10:25:15;99874.72;;;15.60;52.73
64889;BME280;51386;53.082;8.816;2022-12-29T10:27:47;99880.59;;;15.62;53.10
64889;BME280;51386;53.082;8.816;2022-12-29T10:30:15;99884.44;;;15.66;52.59
64889;BME280;51386;53.082;8.816;2022-12-29T10:32:48;99879.00;;;15.61;52.69
64889;BME280;51386;53.082;8.816;2022-12-29T10:35:21;99881.53;;;15.79;52.67
64889;BME280;51386;53.082;8.816;2022-12-29T10:37:57;99891.13;;;15.92;51.85
64889;BME280;51386;53.082;8.816;2022-12-29T10:40:31;99885.38;;;15.95;51.94
64889;BME280;51386;53.082;8.816;2022-12-29T10:43:01;99899.31;;;15.90;51.82
64889;BME280;51386;53.082;8.816;2022-12-29T10:45:33;99894.00;;;15.90;52.09
64889;BME280;51386;53.082;8.816;2022-12-29T10:48:04;99891.59;;;15.89;52.53
64889;BME280;51386;53.082;8.816;2022-12-29T10:50:34;99892.28;;;15.96;52.73
64889;BME280;51386;53.082;8.816;2022-12-29T10:53:05;99898.84;;;15.93;52.61
64889;BME280;51386;53.082;8.816;2022-12-29T10:55:36;99899.56;;;16.00;52.92
64889;BME280;51386;53.082;8.816;2022-12-29T10:58:10;99891.03;;;15.98;53.09
64889;BME280;51386;53.082;8.816;2022-12-29T11:00:39;99892.53;;;15.83;53.78
64889;BME280;51386;53.082;8.816;2022-12-29T11:03:44;99898.13;;;15.63;54.17
64889;BME280;51386;53.082;8.816;2022-12-29T11:06:24;99895.81;;;15.55;54.47
64889;BME280;51386;53.082;8.816;2022-12-29T11:08:57;99892.56;;;15.53;54.63
64889;BME280;51386;53.082;8.816;2022-12-29T11:11:28;99896.28;;;15.52;54.87
64889;BME280;51386;53.082;8.816;2022-12-29T11:14:11;99899.00;;;15.45;54.69
64889;BME280;51386;53.082;8.816;2022-12-29T11:16:40;99880.66;;;15.44;54.85
64889;BME280;51386;53.082;8.816;2022-12-29T11:19:21;99888.59;;;15.44;54.95
64889;BME280;51386;53.082;8.816;2022-12-29T11:21:51;99876.75;;;15.46;55.02
64889;BME280;51386;53.082;8.816;2022-12-29T11:24:22;99877.19;;;15.43;54.85
64889;BME280;51386;53.082;8.816;2022-12-29T11:26:52;99876.66;;;15.53;54.34
64889;BME280;51386;53.082;8.816;2022-12-29T11:29:24;99879.56;;;15.63;54.08
64889;BME280;51386;53.082;8.816;2022-12-29T11:31:54;99882.09;;;15.70;53.69
64889;BME280;51386;53.082;8.816;2022-12-29T11:34:24;99864.47;;;15.75;53.12
64889;BME280;51386;53.082;8.816;2022-12-29T11:37:02;99871.19;;;15.89;52.15
64889;BME280;51386;53.082;8.816;2022-12-29T11:39:38;99860.78;;;15.99;51.91
64889;BME280;51386;53.082;8.816;2022-12-29T11:42:14;99874.97;;;16.05;51.25
64889;BME280;51386;53.082;8.816;2022-12-29T11:44:45;99867.13;;;16.10;51.32
64889;BME280;51386;53.082;8.816;2022-12-29T11:47:26;99872.31;;;16.16;51.54
64889;BME280;51386;53.082;8.816;2022-12-29T11:50:00;99871.97;;;16.24;51.14
64889;BME280;51386;53.082;8.816;2022-12-29T11:52:34;99867.72;;;16.23;49.85
64889;BME280;51386;53.082;8.816;2022-12-29T11:55:04;99889.41;;;16.20;50.63
64889;BME280;51386;53.082;8.816;2022-12-29T11:57:35;99889.66;;;16.31;50.60
64889;BME280;51386;53.082;8.816;2022-12-29T12:00:14;99891.59;;;16.35;50.05
64889;BME280;51386;53.082;8.816;2022-12-29T12:02:50;99877.06;;;16.38;49.39
64889;BME280;51386;53.082;8.816;2022-12-29T12:05:26;99882.47;;;16.19;49.65
64889;BME280;51386;53.082;8.816;2022-12-29T12:08:03;99886.53;;;15.99;49.84
64889;BME280;51386;53.082;8.816;2022-12-29T12:10:41;99885.13;;;16.08;50.34
64889;BME280;51386;53.082;8.816;2022-12-29T12:13:27;99895.63;;;16.14;50.22
64889;BME280;51386;53.082;8.816;2022-12-29T12:16:06;99889.28;;;16.27;49.70
64889;BME280;51386;53.082;8.816;2022-12-29T12:18:42;99891.13;;;16.15;49.80
64889;BME280;51386;53.082;8.816;2022-12-29T12:21:27;99886.19;;;16.18;49.81
64889;BME280;51386;53.082;8.816;2022-12-29T12:24:27;99895.53;;;16.21;49.78
64889;BME280;51386;53.082;8.816;2022-12-29T12:27:01;99898.63;;;16.30;50.04
64889;BME280;51386;53.082;8.816;2022-12-29T12:29:38;99903.72;;;16.19;50.01
64889;BME280;51386;53.082;8.816;2022-12-29T12:32:16;99916.66;;;16.27;49.97
64889;BME280;51386;53.082;8.816;2022-12-29T12:34:47;99914.44;;;16.36;49.76
64889;BME280;51386;53.082;8.816;2022-12-29T12:37:43;99918.38;;;16.22;49.80
64889;BME280;51386;53.082;8.816;2022-12-29T12:40:39;99918.94;;;16.24;50.22
64889;BME280;51386;53.082;8.816;2022-12-29T12:43:39;99911.09;;;16.17;50.11
64889;BME280;51386;53.082;8.816;2022-12-29T12:46:27;99920.00;;;16.23;50.42
64889;BME280;51386;53.082;8.816;2022-12-29T12:49:23;99940.19;;;16.24;50.22
64889;BME280;51386;53.082;8.816;2022-12-29T12:52:04;99942.75;;;16.31;50.80
64889;BME280;51386;53.082;8.816;2022-12-29T12:55:00;99957.53;;;16.26;50.85
64889;BME280;51386;53.082;8.816;2022-12-29T12:57:49;99952.31;;;16.20;51.29
64889;BME280;51386;53.082;8.816;2022-12-29T13:00:21;99948.72;;;16.14;51.70
64889;BME280;51386;53.082;8.816;2022-12-29T13:03:04;99949.22;;;16.11;51.59
64889;BME280;51386;53.082;8.816;2022-12-29T13:05:57;99973.06;;;16.00;52.14
64889;BME280;51386;53.082;8.816;2022-12-29T13:09:08;99985.53;;;15.88;52.22
64889;BME280;51386;53.082;8.816;2022-12-29T13:12:00;99995.34;;;15.87;52.58
64889;BME280;51386;53.082;8.816;2022-12-29T13:14:47;99999.00;;;15.86;52.47
64889;BME280;51386;53.082;8.816;2022-12-29T13:17:25;99986.31;;;15.88;52.75
64889;BME280;51386;53.082;8.816;2022-12-29T13:20:02;100004.75;;;15.83;52.96
64889;BME280;51386;53.082;8.816;2022-12-29T13:22:44;100007.91;;;15.80;53.11
64889;BME280;51386;53.082;8.816;2022-12-29T13:25:29;100016.31;;;15.77;53.58
64889;BME280;51386;53.082;8.816;2022-12-29T13:28:06;100018.94;;;15.77;53.70
64889;BME280;51386;53.082;8.816;2022-12-29T13:30:51;100018.81;;;15.72;53.85
64889;BME280;51386;53.082;8.816;2022-12-29T13:33:28;100016.84;;;15.68;53.96